Date,TemperatureHighF,TemperatureAvgF,TemperatureLowF,DewpointHighF,DewpointAvgF,DewpointLowF,HumidityHigh,HumidityAvg,HumidityLow,PressureMaxIn,PressureMinIn,WindSpeedMaxMPH,WindSpeedAvgMPH,GustSpeedMaxMPH,PrecipitationSumIn
2013-1-1,36,31,18,25,17,6,71,57,42,30.07,29.87,25,5,25,0.00
2013-1-2,31,19,10,14,8,3,78,62,44,30.24,30.03,16,3,16,0.00
2013-1-3,25,15,4,13,1,-9,74,54,23,30.27,29.66,12,2,12,0.00
2013-1-4,38,28,18,22,18,12,85,65,48,30.13,29.96,16,4,16,0.00
2013-1-5,43,31,19,24,19,16,87,63,39,30.40,30.01,15,3,15,0.00
2013-1-6,43,30,20,31,24,17,92,80,54,30.36,30.07,11,2,11,0.01
2013-1-7,43,29,17,34,21,13,96,74,36,30.53,30.11,8,1,8,0.00
2013-1-8,48,32,14,29,23,12,94,74,44,30.51,30.41,15,3,15,0.00
2013-1-9,45,34,19,36,28,17,94,79,48,30.52,30.15,14,3,14,0.00
2013-1-10,47,38,26,32,23,20,84,57,34,30.67,30.21,18,4,18,0.00
2013-1-11,37,30,22,35,26,20,97,85,69,30.67,30.34,3,0,3,0.17
2013-1-12,42,38,35,42,38,35,99,99,97,30.34,30.25,3,0,3,0.07
2013-1-13,53,45,37,52,44,37,99,97,90,30.29,30.15,10,2,10,0.01
2013-1-14,61,50,38,53,43,29,99,81,42,30.40,30.02,11,3,11,0.01
2013-1-15,41,35,30,35,29,25,97,80,57,30.46,30.34,5,1,5,0.02
2013-1-16,34,32,30,33,31,27,99,95,84,30.38,29.94,5,0,5,0.02
2013-1-17,42,34,29,38,28,18,99,80,57,30.22,29.98,11,2,11,0.22
2013-1-18,30,23,16,18,3,-7,60,44,23,30.59,30.16,14,3,14,0.00
2013-1-19,46,36,18,33,22,4,87,59,39,30.52,30.02,24,5,24,0.00
2013-1-20,53,41,28,33,24,6,73,52,24,30.07,29.71,24,7,24,0.00
2013-1-21,28,24,17,19,10,4,88,57,38,30.24,29.92,14,2,14,0.00
2013-1-22,25,19,11,19,5,-8,90,57,27,30.22,29.88,17,4,17,0.00
2013-1-23,16,10,4,0,-8,-12,61,45,32,30.29,30.20,17,5,17,0.00
2013-1-24,20,10,-3,-6,-11,-15,68,40,22,30.38,30.21,20,4,20,0.00
2013-1-25,24,16,8,9,-8,-14,73,35,18,30.45,30.17,11,3,11,0.00
2013-1-26,26,16,5,10,1,-8,84,56,29,30.38,30.12,11,2,11,0.00
2013-1-27,32,18,3,6,-1,-6,79,45,19,30.60,30.38,14,2,14,0.00
2013-1-28,32,24,14,27,14,2,94,68,28,30.59,30.13,8,1,8,0.00
2013-1-29,33,30,26,32,29,25,99,95,93,30.32,30.13,4,0,4,0.18
2013-1-30,60,49,32,58,48,32,99,97,91,30.29,29.60,19,5,19,0.15
2013-1-31,61,48,30,59,36,9,97,67,30,29.75,29.15,25,10,25,0.67
2013-2-1,32,27,20,17,7,0,61,43,27,30.23,29.75,17,6,17,0.00
2013-2-2,30,23,16,14,6,2,66,47,30,30.38,30.18,13,4,13,0.00
2013-2-3,30,24,17,21,18,14,88,78,65,30.19,29.86,8,1,9,0.00
2013-2-4,30,22,15,17,10,2,88,62,31,30.09,29.86,17,4,17,0.00
2013-2-5,25,22,17,21,15,10,90,77,67,30.13,30.06,2,0,2,0.00
2013-2-6,38,29,24,28,17,0,93,65,31,30.44,30.04,14,3,14,0.05
2013-2-7,32,24,14,11,5,-1,72,45,25,30.66,30.44,8,1,8,0.00
2013-2-8,32,27,18,31,23,7,99,85,52,30.60,29.67,14,3,14,0.00
2013-2-9,25,19,11,21,15,5,96,87,74,30.34,29.66,14,4,14,0.00
2013-2-10,39,20,3,15,6,-2,84,61,22,30.53,30.34,9,2,9,0.01
2013-2-11,46,32,11,46,31,7,99,93,85,30.49,29.75,13,2,13,0.22
2013-2-12,44,38,32,41,29,23,98,72,50,30.04,29.76,21,5,21,0.00
2013-2-13,34,32,31,23,22,20,67,64,62,30.01,29.98,8,4,8,0.00
2013-2-16,36,34,32,29,28,25,85,79,74,29.95,29.91,5,1,5,0.02
2013-2-17,25,21,14,15,4,-1,90,48,33,29.86,29.56,30,9,30,0.00
2013-2-18,31,21,13,2,-3,-11,52,36,17,30.32,29.86,22,7,22,0.00
2013-2-19,48,34,15,43,24,1,96,70,40,30.32,29.72,11,2,11,0.25
2013-2-20,40,31,25,39,18,7,96,61,36,29.94,29.69,21,6,21,0.02
2013-2-21,34,27,23,15,12,9,67,54,39,30.35,29.92,20,6,20,0.00
2013-2-22,41,30,18,24,19,13,85,64,42,30.50,30.35,10,2,10,0.00
2013-2-23,37,33,28,32,28,22,97,84,72,30.46,30.00,8,1,8,0.17
2013-2-24,36,34,32,35,33,31,99,98,95,30.02,29.81,10,2,10,0.71
2013-2-25,41,33,27,37,31,27,99,92,76,30.38,30.02,7,0,7,0.17
2013-2-26,43,36,32,39,30,26,99,80,55,30.46,30.25,8,1,8,0.00
2013-2-27,42,39,34,42,38,30,99,97,81,30.25,29.71,14,3,14,1.36
2013-2-28,45,37,30,41,35,29,99,95,81,29.77,29.66,4,1,4,0.00
2013-3-1,47,37,29,37,30,26,99,77,47,29.82,29.66,9,2,9,0.01
2013-3-2,40,36,33,28,26,25,77,69,58,29.82,29.75,8,2,8,0.00
2013-3-3,41,34,31,29,26,23,88,72,55,29.78,29.69,11,3,11,0.00
2013-3-4,40,33,27,27,21,19,83,63,47,29.89,29.74,17,6,17,0.00
2013-3-5,47,36,28,28,25,20,86,64,46,30.20,29.88,9,2,9,0.00
2013-3-6,40,35,30,36,32,27,96,89,70,30.19,30.13,17,4,17,0.17
2013-3-7,35,32,30,32,30,28,94,89,82,30.14,30.08,18,3,18,0.06
2013-3-8,34,32,29,33,30,26,98,93,76,30.26,30.04,1,0,1,0.00
2013-3-9,52,37,25,27,23,10,91,61,20,30.48,30.26,9,1,9,0.61
2013-3-10,50,35,21,34,27,20,96,76,45,30.53,30.43,8,2,8,0.01
2013-3-11,56,43,35,40,35,31,91,77,39,30.46,30.29,11,3,11,0.00
2013-3-12,58,50,38,54,48,36,99,93,76,30.30,29.87,15,3,15,0.53
2013-3-13,52,42,28,47,30,17,95,67,28,29.93,29.85,14,3,14,0.00
2013-3-14,34,29,22,25,14,5,89,55,32,29.99,29.86,19,5,19,0.00
2013-3-15,42,31,21,27,12,-3,76,48,19,30.01,29.79,16,5,16,0.00
2013-3-16,40,34,25,26,13,2,72,46,21,30.00,29.83,10,2,11,0.00
2013-3-17,41,30,22,18,9,-13,77,45,10,30.43,29.99,17,2,17,0.00
2013-3-18,39,28,15,24,5,-12,80,43,11,30.59,30.33,8,2,8,0.00
2013-3-19,36,32,28,35,31,24,97,94,80,30.33,29.73,12,3,12,0.35
2013-3-20,41,31,24,30,20,14,97,66,38,29.95,29.82,18,3,18,0.02
2013-3-21,39,30,22,27,24,19,90,77,54,29.95,29.75,6,1,6,0.00
2013-3-22,41,33,24,25,18,14,87,55,35,29.90,29.75,18,5,18,0.00
2013-3-23,43,35,28,24,18,13,76,52,31,29.95,29.81,21,6,21,0.00
2013-3-24,51,38,29,24,20,17,75,52,26,29.98,29.85,11,3,11,0.00
2013-3-25,44,36,27,31,28,23,90,74,53,29.91,29.62,19,3,19,0.00
2013-3-26,50,38,28,29,25,19,78,59,32,29.94,29.65,11,2,11,0.00
2013-3-27,57,39,24,29,22,15,88,55,20,30.01,29.89,14,2,14,0.00
2013-3-28,51,42,35,36,31,25,91,67,37,30.17,30.00,11,2,11,0.01
2013-3-29,58,44,29,37,28,20,94,58,24,30.20,30.11,12,2,12,0.00
2013-3-30,60,46,31,32,18,0,80,42,10,30.25,30.14,13,2,13,0.00
2013-3-31,60,43,25,43,24,5,92,56,12,30.26,29.84,16,3,16,0.07
2013-4-1,62,47,33,45,38,15,97,74,40,29.95,29.65,26,5,26,0.33
2013-4-2,42,34,27,16,11,-2,61,40,17,30.11,29.94,18,5,18,0.00
2013-4-3,46,36,30,16,9,-4,56,35,12,30.32,30.09,20,8,20,0.00
2013-4-4,57,40,27,28,12,-3,69,38,10,30.45,30.21,13,4,13,0.00
2013-4-5,63,46,37,32,22,0,73,46,10,30.21,29.77,12,4,12,0.00
2013-4-6,50,39,27,25,6,-10,61,30,10,30.47,30.02,16,3,16,0.00
2013-4-7,55,41,23,42,26,13,81,58,23,30.46,30.16,17,4,17,0.00
2013-4-8,70,54,43,44,38,21,93,61,17,30.23,30.10,12,3,12,0.00
2013-4-9,76,59,47,52,42,32,94,59,23,30.22,30.00,18,3,18,0.00
2013-4-10,70,55,46,50,46,38,96,75,45,30.15,29.98,11,2,11,0.25
2013-4-11,57,49,42,46,39,25,97,71,40,30.27,29.95,10,2,10,0.01
2013-4-12,42,39,37,38,35,29,98,85,61,30.28,29.90,15,4,15,0.39
2013-4-13,56,44,36,42,36,31,98,77,40,30.08,29.86,12,3,12,0.05
2013-4-14,54,43,32,42,30,20,98,65,30,30.37,30.06,16,2,16,0.00
2013-4-15,61,44,28,36,30,25,92,61,28,30.54,30.36,8,2,8,0.00
2013-4-16,66,50,31,50,40,30,96,71,39,30.54,30.24,14,4,14,0.00
2013-4-17,71,59,42,52,35,14,89,50,12,30.48,30.22,14,3,14,0.00
2013-4-18,65,50,33,45,33,22,95,60,23,30.56,30.29,12,3,12,0.00
2013-4-19,73,62,52,63,58,46,99,87,64,30.29,29.82,19,5,19,0.04
2013-4-20,64,53,44,63,42,25,98,68,35,30.37,29.76,16,4,16,0.69
2013-4-21,57,43,31,28,20,8,75,43,16,30.81,30.38,12,3,12,0.00
2013-4-22,56,42,29,35,28,19,93,61,25,30.86,30.71,14,3,14,0.00
2013-4-23,42,40,38,41,37,30,97,89,70,30.71,30.30,11,3,11,0.02
2013-5-5,69,64,54,41,38,34,62,39,28,30.44,30.35,8,3,8,0.00
2013-5-10,79,75,70,52,49,45,51,41,31,30.07,30.03,6,2,6,0.01
2013-5-12,72,57,45,48,38,29,75,51,35,29.98,29.72,11,2,11,0.02
2013-5-13,61,49,34,38,29,21,92,49,23,30.18,29.98,8,2,11,0.00
2013-5-14,57,43,33,38,30,22,91,65,28,30.20,30.12,8,1,8,0.00
2013-5-15,57,47,30,52,44,28,96,90,73,30.20,29.83,8,1,8,0.02
2013-5-16,84,63,46,52,39,19,99,56,10,29.95,29.79,13,2,13,0.00
2013-5-17,75,60,43,44,39,32,96,53,22,30.34,30.04,7,1,7,0.00
2013-5-18,74,63,40,53,42,30,98,50,20,30.45,30.35,9,2,9,0.00
2013-5-19,71,57,44,55,50,42,97,78,46,30.49,30.36,9,1,9,0.12
2013-5-20,84,69,56,66,62,55,99,82,49,30.36,30.06,8,1,8,0.17
2013-5-21,88,67,52,73,62,52,99,86,47,30.13,29.96,8,1,8,0.14
2013-5-22,76,60,51,69,58,50,99,93,80,30.18,30.00,8,1,8,0.01
2013-5-23,72,67,60,66,64,58,99,92,83,30.06,29.96,10,3,10,0.27
2013-5-24,69,61,49,67,60,49,99,98,90,29.97,29.81,4,1,6,0.86
2013-5-25,51,46,41,51,46,40,99,98,94,29.96,29.87,7,2,7,1.16
2013-5-26,61,52,41,46,42,39,96,69,47,30.27,29.91,16,3,16,1.18
2013-5-27,75,56,37,48,38,26,99,61,19,30.32,30.22,11,2,11,0.00
2013-5-28,76,58,39,55,44,32,98,66,22,30.38,30.31,8,1,8,0.00
2013-5-29,78,65,58,69,62,55,99,90,69,30.33,30.14,9,1,9,0.74
2013-5-30,90,75,62,73,67,61,99,80,44,30.24,30.15,8,1,8,0.04
2013-5-31,94,78,64,74,66,60,99,70,35,30.25,30.11,9,1,9,0.00
2013-6-1,90,77,62,70,65,61,98,70,41,30.14,30.04,10,2,10,0.00
2013-6-2,88,76,68,69,65,63,89,72,44,30.06,29.91,18,3,18,0.02
2013-6-3,68,66,66,66,64,63,98,93,87,29.99,29.94,4,0,4,0.13
2013-6-11,62,61,60,62,61,60,99,99,99,29.74,29.71,2,1,3,0.60
2013-6-12,72,61,55,60,56,53,99,85,54,29.87,29.74,9,2,9,0.62
2013-6-13,71,57,48,61,56,48,99,97,53,29.97,29.82,5,0,6,0.96
2013-6-14,73,58,52,61,55,52,99,91,66,29.91,29.76,5,1,5,1.20
2013-6-15,60,59,59,57,57,57,93,93,93,30.04,29.91,1,0,1,1.20
2013-6-16,76,64,48,64,56,47,100,77,47,30.11,29.87,6,1,6,0.00
2013-6-17,86,72,60,66,61,55,100,71,39,30.07,29.93,7,2,7,0.09
2013-6-18,63,60,58,62,59,58,100,99,93,30.07,30.03,4,0,4,0.52
2013-6-19,76,64,54,59,54,50,99,74,42,30.06,29.54,4,0,4,0.58
2013-6-20,80,68,47,58,51,42,100,59,26,30.41,29.76,6,1,6,0.58
2013-6-21,85,72,56,66,60,53,91,67,49,30.42,30.35,7,2,7,0.00
2013-6-22,84,75,62,62,59,54,78,58,41,30.38,30.29,6,2,6,0.00
2013-6-23,89,76,63,71,64,57,85,69,47,30.32,30.18,9,2,9,0.00
2013-6-24,90,75,69,73,69,66,94,83,54,30.19,30.05,8,1,8,0.00
2013-6-25,90,80,66,75,70,66,100,73,48,30.10,29.90,8,1,8,0.00
2013-6-26,86,77,68,75,71,67,100,83,54,29.97,29.89,7,1,7,0.00
2013-6-27,72,69,67,71,68,67,100,98,95,29.98,29.91,3,0,3,0.00
2013-6-28,81,71,67,72,68,66,99,92,72,29.92,29.65,8,1,8,0.00
2013-6-29,83,78,70,72,69,66,99,77,59,29.80,29.66,11,3,11,0.00
2013-6-30,84,76,73,72,71,69,91,82,68,30.08,29.97,8,2,8,0.00
2013-7-1,80,74,71,74,72,70,99,94,82,30.22,30.07,5,1,5,0.00
2013-7-2,84,75,73,74,72,72,97,92,70,30.27,30.22,6,1,6,0.00
2013-7-3,88,78,71,74,72,70,100,81,61,30.37,30.30,9,2,9,0.00
2013-7-4,89,80,74,75,74,72,95,81,61,30.37,30.28,9,2,9,0.00
2013-7-5,92,86,78,76,74,72,89,68,51,30.33,30.21,8,2,8,0.00
2013-7-6,92,81,72,75,73,68,100,77,48,30.25,30.14,4,1,4,0.00
2013-7-7,93,78,69,78,74,69,100,86,54,30.19,30.06,4,0,4,0.00
2013-7-8,90,75,70,75,72,68,100,90,49,30.20,30.06,4,0,5,0.00
2013-7-9,78,72,67,74,70,67,100,94,78,30.25,30.17,6,0,6,0.01
2013-7-10,85,75,69,77,72,68,100,91,71,30.21,29.95,11,1,11,0.00
2013-7-11,80,74,69,76,72,68,100,95,83,30.07,29.93,2,0,2,0.40
2013-7-12,70,68,66,68,64,59,100,88,72,30.33,30.06,4,0,4,0.00
2013-7-13,67,65,65,64,63,62,96,91,87,30.42,30.33,2,0,2,0.04
2013-7-14,90,80,73,76,74,71,100,82,55,30.45,30.35,4,1,4,0.01
2013-7-15,92,81,72,79,75,72,100,84,53,30.36,30.26,3,0,3,0.00
2013-7-16,94,81,68,75,71,66,100,77,41,30.30,30.25,3,1,3,0.00
2013-7-17,93,80,69,76,71,68,100,78,46,30.33,30.19,5,1,5,0.00
2013-7-18,95,83,75,76,72,69,87,72,44,30.20,30.08,4,1,4,0.00
2013-7-19,95,84,73,79,75,73,100,77,49,30.11,29.41,8,2,8,0.00
2013-7-20,92,83,72,78,75,71,97,78,56,29.97,29.82,8,1,8,0.05
2013-7-21,86,79,67,71,67,62,97,69,46,30.13,29.97,4,1,4,0.00
2013-7-22,86,77,65,72,70,65,99,79,59,30.14,30.02,5,1,5,0.00
2013-7-23,84,73,71,74,71,69,100,95,74,30.02,29.68,5,0,5,0.57
2013-7-24,83,72,67,70,68,65,99,86,57,30.02,29.73,4,0,4,0.57
2013-7-25,67,60,59,65,54,50,99,83,70,30.23,30.03,3,0,3,0.58
2013-7-26,72,61,59,68,60,59,99,99,90,30.22,30.10,3,1,3,0.86
2013-7-27,83,70,59,69,64,58,99,82,50,30.21,30.14,6,1,6,0.01
2013-7-28,85,73,64,72,68,64,100,86,56,30.14,30.09,3,0,3,0.00
2013-7-29,86,76,68,71,69,67,99,80,57,30.16,30.11,6,1,6,0.00
2013-7-30,81,64,59,69,60,57,99,88,46,30.23,30.16,3,0,3,0.00
2013-7-31,83,70,57,66,61,57,100,76,45,30.28,30.18,2,0,2,0.00
2013-8-1,75,65,59,65,61,59,100,87,65,30.19,30.06,7,1,7,0.00
2013-8-2,83,71,65,65,63,59,99,78,45,30.06,29.94,5,0,5,0.01
2013-8-3,78,68,64,66,63,61,100,85,64,30.02,29.96,5,1,5,0.01
2013-8-4,78,68,59,63,59,53,100,77,47,30.00,29.93,4,1,4,0.02
2013-8-5,79,60,52,57,52,45,97,81,32,30.19,29.97,2,0,3,0.02
2013-8-6,80,60,47,57,51,46,100,77,37,30.29,30.19,4,0,4,0.02
2013-8-7,80,67,51,58,54,50,100,67,37,30.33,30.27,7,1,7,0.02
2013-8-8,81,70,66,72,66,58,94,88,72,30.27,30.17,5,1,5,0.04
2013-8-9,76,74,73,76,73,70,99,96,90,30.20,29.92,7,1,7,0.04
2013-8-10,82,74,65,74,65,54,100,75,39,30.09,29.95,9,2,9,0.04
2013-8-11,81,69,52,62,56,51,99,67,39,30.25,30.08,8,1,8,0.04
2013-8-12,83,76,62,66,62,57,99,65,42,30.21,30.07,4,1,4,0.04
2013-8-13,78,67,61,69,64,60,99,89,68,30.09,29.84,3,0,3,0.04
2013-8-14,76,65,59,65,55,51,99,73,45,30.02,29.82,8,2,8,0.00
2013-8-15,78,63,50,58,52,49,100,74,38,30.24,30.17,5,0,5,0.00
2013-8-16,80,62,49,59,55,49,99,81,45,30.35,30.25,2,0,2,0.00
2013-8-17,83,69,54,65,61,54,100,78,44,30.42,30.34,4,0,4,0.00
2013-8-18,77,70,58,67,62,57,100,79,56,30.42,30.38,2,0,2,0.00
2013-8-20,86,78,67,67,64,58,93,64,42,30.25,30.19,4,1,4,0.00
2013-8-21,87,74,59,67,62,58,99,70,40,30.28,30.19,5,1,5,0.00
2013-8-22,77,68,61,71,66,60,99,93,79,30.19,30.00,7,1,7,0.00
2013-8-23,72,67,60,71,64,57,97,89,70,30.26,29.98,4,0,4,0.00
2013-8-24,78,67,54,57,54,46,93,64,36,30.48,30.26,5,2,5,0.00
2013-8-25,73,66,55,66,59,54,99,81,54,30.51,30.35,2,0,2,0.00
2013-8-26,78,69,63,66,62,56,87,80,65,30.36,30.05,7,1,7,0.00
2013-8-27,74,69,68,74,69,66,99,99,87,30.06,29.97,4,0,4,0.00
2013-8-28,87,72,61,74,67,61,100,87,53,30.08,29.98,4,0,4,0.00
2013-8-29,68,65,60,68,64,59,100,97,91,30.21,30.08,4,1,4,0.00
2013-8-30,82,69,60,70,65,59,100,88,61,30.19,29.98,5,1,5,0.00
2013-8-31,79,74,69,74,72,68,100,93,82,29.99,29.94,6,1,6,0.00
2013-9-1,78,73,69,78,72,68,100,98,92,30.02,29.93,4,1,4,0.00
2013-9-2,78,75,71,77,74,71,100,96,87,30.02,29.86,7,1,7,0.01
2013-9-3,74,69,64,73,68,63,99,96,84,29.96,29.85,2,0,2,0.01
2013-9-4,80,65,57,63,58,54,99,80,41,30.06,29.96,7,1,7,0.01
2013-9-5,70,58,51,59,54,49,99,87,64,30.26,30.03,3,0,3,0.01
2013-9-6,66,51,41,49,46,41,99,85,50,30.35,30.26,2,0,2,0.01
2013-9-7,77,68,46,57,53,45,99,60,38,30.26,30.04,8,2,8,0.01
2013-9-8,67,64,64,57,57,57,80,80,80,30.06,29.92,1,0,1,0.01
2013-9-9,68,54,39,52,45,38,100,76,41,30.39,30.24,4,1,4,0.00
2013-9-10,75,66,53,70,64,50,100,91,84,30.31,30.19,7,2,7,0.01
2013-9-11,93,79,69,78,73,69,100,83,53,30.23,30.11,8,2,8,0.00
2013-9-12,86,76,69,75,71,69,100,85,61,30.13,29.85,11,2,11,0.00
2013-9-14,66,56,51,55,52,50,100,87,64,30.21,29.99,4,1,4,0.30
2013-9-15,70,59,46,57,51,46,99,77,47,30.31,30.20,5,1,5,0.30
2013-9-16,65,57,52,59,54,51,99,91,67,30.29,30.17,2,0,2,0.32
2013-9-17,62,47,39,51,40,36,93,78,42,30.49,30.29,4,0,4,0.32
2013-9-18,72,49,36,49,39,35,100,77,33,30.49,30.31,4,1,4,0.32
2013-9-19,77,60,45,56,49,44,99,74,42,30.31,30.18,3,0,3,0.32
2013-9-20,77,58,44,56,51,44,99,81,42,30.21,30.15,4,0,4,0.32
2013-9-21,75,67,52,65,62,51,100,84,62,30.17,29.92,12,3,12,0.00
2013-9-22,70,65,52,66,59,46,100,81,55,29.97,29.77,7,2,7,0.47
2013-9-23,63,49,42,47,43,41,100,83,52,30.06,29.97,4,0,4,0.47
2013-9-24,68,44,39,48,40,38,100,91,48,30.12,29.96,2,0,3,0.47
2013-9-25,67,49,42,57,46,42,99,91,49,30.07,29.96,2,0,2,0.00
2013-9-26,65,54,48,54,49,47,96,87,57,30.26,30.07,2,0,2,0.00
2013-9-27,61,52,47,55,51,47,100,96,79,30.41,30.26,1,0,1,0.00
2013-9-28,72,59,40,61,52,40,100,81,55,30.47,30.40,5,1,5,0.00
2013-9-29,67,60,47,57,50,44,99,74,47,30.38,30.25,4,1,4,0.00
2013-9-30,67,56,49,53,50,48,99,83,54,30.26,30.11,2,0,2,0.00
2013-10-1,73,58,43,58,53,42,99,85,53,30.13,30.00,2,0,2,0.00
2013-10-2,78,61,49,60,55,48,99,83,54,30.08,30.00,7,1,7,0.00
2013-10-3,74,56,46,57,48,44,99,80,36,30.23,30.08,2,0,2,0.00
2013-10-4,58,49,46,57,48,46,99,99,94,30.23,30.19,2,0,2,0.09
2013-10-6,58,58,57,58,58,56,99,99,99,30.31,30.30,3,0,3,0.52
2013-10-7,73,65,56,69,63,56,99,92,85,30.31,29.97,14,3,14,0.32
2013-10-8,66,51,45,58,46,42,100,86,42,30.50,30.05,3,0,3,0.33
2013-10-9,59,47,38,44,41,38,99,82,57,30.54,30.50,4,0,4,0.33
2013-10-10,62,52,42,54,49,42,99,90,72,30.51,30.33,4,1,4,0.33
2013-10-11,68,60,49,58,54,46,96,81,70,30.33,30.22,5,1,5,0.33
2013-10-12,65,57,48,59,55,46,100,93,78,30.51,30.28,9,2,9,0.33
2013-10-13,60,52,42,52,48,40,96,85,68,30.57,30.50,6,1,6,0.00
2013-10-14,65,54,36,52,45,35,99,73,44,30.55,30.40,4,1,4,0.00
2013-10-15,69,56,44,53,50,43,99,79,55,30.40,30.30,4,0,4,0.00
2013-10-16,60,54,45,55,52,45,100,94,82,30.34,30.06,2,0,2,0.00
2013-10-17,70,57,50,61,55,50,100,92,71,30.07,29.91,4,1,4,0.00
2013-10-18,66,64,58,63,56,42,100,80,43,29.94,29.77,8,3,8,0.05
2013-10-19,65,58,39,57,44,37,100,61,38,30.11,29.91,8,1,8,0.05
2013-10-20,62,52,36,49,35,27,100,57,27,30.18,29.87,12,3,12,0.00
2013-10-21,67,49,32,48,37,31,100,70,32,30.26,30.14,9,1,9,0.00
2013-10-22,68,51,36,57,44,35,100,81,45,30.14,29.84,10,1,10,0.00
2013-10-23,50,42,31,44,37,31,100,84,57,29.94,29.73,3,0,3,0.01
2013-10-24,52,42,32,37,29,18,95,64,28,30.04,29.79,13,2,13,0.00
2013-10-25,51,38,28,36,28,24,92,68,37,30.31,30.04,9,2,9,0.00
2013-10-26,54,41,25,40,28,19,100,66,26,30.31,30.01,14,2,14,0.00
2013-10-27,55,45,30,42,33,26,96,65,36,30.22,29.95,14,2,14,0.04
2013-10-28,59,41,26,40,29,25,100,67,33,30.48,30.22,17,2,17,0.00
2013-10-29,51,37,27,28,24,19,85,62,29,30.58,30.48,7,1,7,0.00
2013-10-30,55,40,27,42,34,23,95,83,60,30.50,30.32,10,1,10,0.00
2013-10-31,62,48,30,61,46,30,100,95,85,30.38,29.94,10,1,10,0.05
2013-11-1,69,64,59,63,59,54,100,85,71,29.94,29.63,21,6,21,0.20
2013-11-2,67,55,45,55,46,36,100,75,32,29.87,29.73,7,1,7,0.00
2013-11-3,50,42,32,45,31,16,94,68,43,30.54,29.86,8,2,8,0.00
2013-11-4,44,32,22,19,15,8,83,53,24,30.83,30.54,11,1,11,0.00
2013-11-5,52,36,21,33,26,17,93,70,37,30.84,30.65,6,1,6,0.00
2013-11-6,60,48,35,51,41,32,93,77,47,30.65,30.19,10,2,10,0.00
2013-11-7,67,54,36,60,51,33,100,90,70,30.19,29.82,17,3,17,0.24
2013-11-8,48,37,27,38,26,16,100,68,33,30.25,29.97,16,3,16,0.00
2013-11-9,45,34,23,31,23,17,95,66,34,30.36,30.16,11,1,11,0.00
2013-11-10,57,45,37,45,35,26,97,72,41,30.16,29.87,15,3,15,0.06
2013-11-11,51,45,37,29,24,17,57,44,27,30.25,30.03,21,5,21,0.00
2013-11-12,50,36,25,37,24,12,89,64,45,30.33,30.02,18,2,18,0.13
2013-11-13,37,27,18,16,10,1,80,52,23,30.42,30.31,11,2,11,0.00
2013-11-14,50,40,28,17,11,3,54,33,16,30.31,30.19,16,4,16,0.00
2013-11-15,61,45,34,28,10,-3,78,30,10,30.34,30.26,12,2,12,0.00
2013-11-16,61,43,30,35,30,26,89,65,28,30.46,30.33,11,1,11,0.00
2013-11-17,59,47,30,59,44,27,100,91,73,30.44,29.96,8,1,8,0.07
2013-11-18,66,59,46,63,45,27,100,64,27,29.96,29.69,18,4,18,0.35
2013-11-19,48,40,30,27,18,11,53,41,26,30.41,29.81,15,4,15,0.00
2013-11-20,44,30,19,15,8,-11,73,43,10,30.75,30.40,8,2,8,0.00
2013-11-21,48,31,16,29,18,12,87,61,24,30.76,30.52,10,1,10,0.00
2013-11-22,50,45,37,50,43,29,100,92,70,30.52,29.96,7,1,7,0.20
2013-11-23,48,40,29,48,23,2,100,53,17,30.06,29.93,17,5,17,0.00
2013-11-24,29,23,19,13,-5,-23,56,30,10,30.34,29.95,22,8,22,0.00
2013-11-25,33,25,15,15,-5,-23,48,29,10,30.50,30.34,14,4,14,0.00
2013-11-26,41,36,32,35,19,11,95,55,30,30.45,30.14,10,2,10,0.24
2013-11-27,62,50,36,62,49,31,100,97,84,30.14,29.36,24,4,24,2.07
2013-11-28,36,30,21,31,11,-2,83,48,23,30.57,29.63,20,3,20,0.01
2013-11-29,36,26,17,16,9,2,74,50,26,30.86,30.57,11,2,11,0.00
2013-11-30,35,23,10,18,10,5,81,60,33,30.91,30.54,7,1,7,0.00
2013-12-1,39,34,27,39,31,18,100,91,70,30.54,30.13,3,0,3,0.11
2013-12-2,43,37,33,42,36,32,100,99,94,30.14,30.04,3,0,3,0.00
2013-12-3,52,38,28,44,33,27,99,86,44,30.09,29.97,7,1,7,0.01
2013-12-4,49,33,25,36,27,24,100,81,39,30.33,30.09,7,1,7,0.00
2013-12-5,56,42,29,56,41,27,100,94,87,30.32,30.06,11,1,11,0.00
2013-12-6,57,49,36,57,48,36,100,97,89,30.26,29.99,9,2,9,0.39
2013-12-7,41,33,25,38,28,19,100,84,50,30.58,30.19,14,1,14,0.14
2013-12-8,31,26,18,26,18,12,94,71,48,30.72,30.58,4,0,4,0.00
2013-12-9,36,31,25,36,29,14,100,93,55,30.60,30.02,6,1,6,0.19
2013-12-10,34,30,20,34,29,17,100,98,89,30.15,29.90,2,0,3,0.00
2013-12-11,28,24,16,20,17,14,94,75,63,30.36,30.15,0,0,0,0.00
2013-12-12,26,18,7,15,4,-6,82,59,26,30.40,30.20,0,0,0,0.00
2013-12-13,30,21,9,13,6,2,75,54,32,30.48,30.14,14,2,14,0.00
2013-12-14,22,15,11,18,2,-9,85,56,34,30.71,30.22,7,2,7,0.00
2013-12-15,34,27,17,34,25,14,100,91,80,30.21,29.54,12,1,14,0.00
2013-12-16,28,20,4,22,9,-2,93,65,34,30.33,29.88,0,0,0,0.00
2013-12-17,20,8,-4,16,3,-12,85,77,69,30.38,30.03,0,0,0,0.00
2013-12-18,34,25,17,22,16,13,89,72,47,30.23,29.99,11,1,15,0.01
2013-12-19,44,31,19,26,19,13,83,64,32,30.25,30.09,17,3,17,0.13
2013-12-20,55,38,26,38,28,24,93,71,31,30.25,30.06,11,1,11,0.06
2013-12-21,59,45,34,51,40,30,100,84,61,30.11,30.00,13,2,13,0.00
2013-12-22,65,57,40,61,54,37,100,90,77,30.13,29.89,27,4,27,0.01
2013-12-23,40,36,34,40,36,34,100,98,93,30.22,30.06,7,1,7,0.72
2013-12-24,38,32,26,38,22,8,100,67,39,30.34,30.16,10,2,10,0.00
2013-12-25,26,19,12,9,0,-7,68,43,25,30.66,30.33,19,2,19,0.00
2013-12-26,32,25,14,29,17,5,86,73,62,30.61,30.22,10,1,10,0.00
2013-12-27,35,27,18,23,17,12,90,69,39,30.42,30.33,14,2,14,0.01
2013-12-28,48,34,25,24,20,14,80,58,26,30.35,30.14,13,3,13,0.01
2013-12-29,45,35,26,40,31,21,100,87,55,30.16,29.51,11,1,11,0.98
2013-12-30,38,30,18,38,21,5,100,71,33,30.27,29.66,22,3,22,0.01
2013-12-31,26,18,14,13,6,-2,81,59,31,30.32,30.14,11,2,11,0.00
2014-1-1,29,21,10,12,4,-3,72,48,26,30.50,30.32,14,2,14,0.00
2014-1-2,21,14,2,13,7,-4,79,74,57,30.46,29.90,12,3,12,0.00